sensor_id;sensor_type;location;lat;lon;timestamp;P1;durP1;ratioP1;P2;durP2;ratioP2
11287;SDS011;5700;50.996;7.044;2023-02-19T00:01:12;7.13;;;3.70;;
11287;SDS011;5700;50.996;7.044;2023-02-19T00:04:16;5.40;;;2.90;;
11287;SDS011;5700;50.996;7.044;2023-02-19T00:07:19;5.57;;;3.00;;
11287;SDS011;5700;50.996;7.044;2023-02-19T00:10:20;5.82;;;3.47;;
11287;SDS011;5700;50.996;7.044;2023-02-19T00:13:21;7.95;;;3.63;;
11287;SDS011;5700;50.996;7.044;2023-02-19T00:16:24;6.07;;;3.72;;
11287;SDS011;5700;50.996;7.044;2023-02-19T00:19:27;6.07;;;3.60;;
11287;SDS011;5700;50.996;7.044;2023-02-19T00:22:29;7.18;;;3.92;;
11287;SDS011;5700;50.996;7.044;2023-02-19T00:25:30;9.55;;;4.32;;
11287;SDS011;5700;50.996;7.044;2023-02-19T00:28:32;6.78;;;4.30;;
11287;SDS011;5700;50.996;7.044;2023-02-19T00:31:34;6.47;;;3.83;;
11287;SDS011;5700;50.996;7.044;2023-02-19T00:34:37;5.95;;;3.35;;
11287;SDS011;5700;50.996;7.044;2023-02-19T00:37:38;9.55;;;4.57;;
11287;SDS011;5700;50.996;7.044;2023-02-19T00:40:39;9.18;;;4.07;;
11287;SDS011;5700;50.996;7.044;2023-02-19T00:43:41;8.18;;;4.22;;
11287;SDS011;5700;50.996;7.044;2023-02-19T00:46:43;6.18;;;3.88;;
11287;SDS011;5700;50.996;7.044;2023-02-19T00:49:47;6.80;;;4.03;;
11287;SDS011;5700;50.996;7.044;2023-02-19T00:52:48;8.45;;;4.30;;
11287;SDS011;5700;50.996;7.044;2023-02-19T00:55:49;6.82;;;4.07;;
11287;SDS011;5700;50.996;7.044;2023-02-19T00:58:51;6.85;;;3.85;;
11287;SDS011;5700;50.996;7.044;2023-02-19T01:01:53;7.18;;;4.50;;
11287;SDS011;5700;50.996;7.044;2023-02-19T01:04:55;8.52;;;4.82;;
11287;SDS011;5700;50.996;7.044;2023-02-19T01:07:57;8.52;;;4.50;;
11287;SDS011;5700;50.996;7.044;2023-02-19T01:10:58;7.35;;;4.15;;
11287;SDS011;5700;50.996;7.044;2023-02-19T01:14:00;9.00;;;4.90;;
11287;SDS011;5700;50.996;7.044;2023-02-19T01:17:02;8.35;;;4.55;;
11287;SDS011;5700;50.996;7.044;2023-02-19T01:20:05;8.02;;;4.18;;
11287;SDS011;5700;50.996;7.044;2023-02-19T01:23:07;7.00;;;4.28;;
11287;SDS011;5700;50.996;7.044;2023-02-19T01:26:10;7.75;;;4.20;;
11287;SDS011;5700;50.996;7.044;2023-02-19T01:29:13;6.97;;;4.13;;
11287;SDS011;5700;50.996;7.044;2023-02-19T01:32:14;7.07;;;4.03;;
11287;SDS011;5700;50.996;7.044;2023-02-19T01:35:17;6.32;;;3.75;;
11287;SDS011;5700;50.996;7.044;2023-02-19T01:38:18;7.18;;;4.05;;
11287;SDS011;5700;50.996;7.044;2023-02-19T01:41:21;9.85;;;5.32;;
11287;SDS011;5700;50.996;7.044;2023-02-19T01:47:57;9.25;;;4.50;;
11287;SDS011;5700;50.996;7.044;2023-02-19T01:51:04;10.00;;;4.40;;
11287;SDS011;5700;50.996;7.044;2023-02-19T01:54:08;7.88;;;4.03;;
11287;SDS011;5700;50.996;7.044;2023-02-19T01:57:12;7.55;;;3.50;;
11287;SDS011;5700;50.996;7.044;2023-02-19T02:00:17;7.80;;;3.92;;
11287;SDS011;5700;50.996;7.044;2023-02-19T02:03:18;7.32;;;3.80;;
11287;SDS011;5700;50.996;7.044;2023-02-19T02:06:22;6.95;;;3.80;;
11287;SDS011;5700;50.996;7.044;2023-02-19T02:09:25;7.05;;;3.80;;
11287;SDS011;5700;50.996;7.044;2023-02-19T02:12:42;8.05;;;3.90;;
11287;SDS011;5700;50.996;7.044;2023-02-19T02:15:49;5.75;;;3.38;;
11287;SDS011;5700;50.996;7.044;2023-02-19T02:18:54;5.57;;;3.28;;
11287;SDS011;5700;50.996;7.044;2023-02-19T02:22:02;7.43;;;3.38;;
11287;SDS011;5700;50.996;7.044;2023-02-19T02:28:47;8.13;;;3.80;;
11287;SDS011;5700;50.996;7.044;2023-02-19T02:32:02;9.48;;;4.40;;
11287;SDS011;5700;50.996;7.044;2023-02-19T02:35:06;9.00;;;4.60;;
11287;SDS011;5700;50.996;7.044;2023-02-19T02:38:10;8.35;;;4.38;;
11287;SDS011;5700;50.996;7.044;2023-02-19T02:41:12;9.73;;;4.80;;
11287;SDS011;5700;50.996;7.044;2023-02-19T02:44:14;7.70;;;4.18;;
11287;SDS011;5700;50.996;7.044;2023-02-19T02:47:17;7.85;;;4.57;;
11287;SDS011;5700;50.996;7.044;2023-02-19T02:50:33;11.13;;;4.30;;
11287;SDS011;5700;50.996;7.044;2023-02-19T02:53:37;7.30;;;3.85;;
11287;SDS011;5700;50.996;7.044;2023-02-19T02:56:55;7.78;;;3.95;;
11287;SDS011;5700;50.996;7.044;2023-02-19T02:59:58;9.93;;;5.18;;
11287;SDS011;5700;50.996;7.044;2023-02-19T03:03:00;9.60;;;4.75;;
11287;SDS011;5700;50.996;7.044;2023-02-19T03:06:02;9.27;;;4.80;;
11287;SDS011;5700;50.996;7.044;2023-02-19T03:09:06;9.32;;;5.63;;
11287;SDS011;5700;50.996;7.044;2023-02-19T03:12:11;11.52;;;5.80;;
11287;SDS011;5700;50.996;7.044;2023-02-19T03:15:28;9.55;;;5.35;;
11287;SDS011;5700;50.996;7.044;2023-02-19T03:18:51;11.25;;;5.78;;
11287;SDS011;5700;50.996;7.044;2023-02-19T03:22:09;12.57;;;6.07;;
11287;SDS011;5700;50.996;7.044;2023-02-19T03:25:14;10.10;;;5.35;;
11287;SDS011;5700;50.996;7.044;2023-02-19T03:28:33;14.57;;;5.63;;
11287;SDS011;5700;50.996;7.044;2023-02-19T03:31:50;14.40;;;5.95;;
11287;SDS011;5700;50.996;7.044;2023-02-19T03:34:56;11.18;;;5.95;;
11287;SDS011;5700;50.996;7.044;2023-02-19T03:38:01;10.82;;;5.82;;
11287;SDS011;5700;50.996;7.044;2023-02-19T03:41:06;11.10;;;5.13;;
11287;SDS011;5700;50.996;7.044;2023-02-19T03:44:11;15.38;;;5.45;;
11287;SDS011;5700;50.996;7.044;2023-02-19T03:47:14;11.35;;;6.03;;
11287;SDS011;5700;50.996;7.044;2023-02-19T03:50:20;14.07;;;5.97;;
11287;SDS011;5700;50.996;7.044;2023-02-19T03:53:26;10.50;;;5.43;;
11287;SDS011;5700;50.996;7.044;2023-02-19T03:56:32;11.18;;;6.28;;
11287;SDS011;5700;50.996;7.044;2023-02-19T03:59:38;13.57;;;6.10;;
11287;SDS011;5700;50.996;7.044;2023-02-19T04:02:43;11.25;;;5.75;;
11287;SDS011;5700;50.996;7.044;2023-02-19T04:05:49;13.95;;;6.00;;
11287;SDS011;5700;50.996;7.044;2023-02-19T04:08:53;14.90;;;6.72;;
11287;SDS011;5700;50.996;7.044;2023-02-19T04:11:58;12.90;;;6.45;;
11287;SDS011;5700;50.996;7.044;2023-02-19T04:15:00;10.75;;;5.15;;
11287;SDS011;5700;50.996;7.044;2023-02-19T04:18:04;12.50;;;5.95;;
11287;SDS011;5700;50.996;7.044;2023-02-19T04:21:09;15.63;;;5.93;;
11287;SDS011;5700;50.996;7.044;2023-02-19T04:24:12;10.60;;;5.90;;
11287;SDS011;5700;50.996;7.044;2023-02-19T04:27:15;11.43;;;5.85;;
11287;SDS011;5700;50.996;7.044;2023-02-19T04:30:17;12.15;;;5.72;;
11287;SDS011;5700;50.996;7.044;2023-02-19T04:33:19;15.70;;;6.55;;
11287;SDS011;5700;50.996;7.044;2023-02-19T04:36:21;14.30;;;6.40;;
11287;SDS011;5700;50.996;7.044;2023-02-19T04:39:23;14.73;;;6.75;;
11287;SDS011;5700;50.996;7.044;2023-02-19T04:42:24;16.25;;;6.57;;
11287;SDS011;5700;50.996;7.044;2023-02-19T04:45:26;15.63;;;7.28;;
11287;SDS011;5700;50.996;7.044;2023-02-19T04:48:27;11.85;;;6.45;;
11287;SDS011;5700;50.996;7.044;2023-02-19T04:51:30;13.05;;;7.20;;
11287;SDS011;5700;50.996;7.044;2023-02-19T04:54:31;15.73;;;7.88;;
11287;SDS011;5700;50.996;7.044;2023-02-19T04:57:33;14.52;;;7.63;;
11287;SDS011;5700;50.996;7.044;2023-02-19T05:00:34;19.42;;;8.30;;
11287;SDS011;5700;50.996;7.044;2023-02-19T05:03:36;16.50;;;8.52;;
11287;SDS011;5700;50.996;7.044;2023-02-19T05:06:38;20.58;;;8.90;;
11287;SDS011;5700;50.996;7.044;2023-02-19T05:09:40;13.57;;;7.40;;
11287;SDS011;5700;50.996;7.044;2023-02-19T05:12:41;16.00;;;7.93;;
11287;SDS011;5700;50.996;7.044;2023-02-19T05:15:52;13.00;;;7.60;;
11287;SDS011;5700;50.996;7.044;2023-02-19T05:18:54;13.35;;;7.38;;
11287;SDS011;5700;50.996;7.044;2023-02-19T05:21:57;17.85;;;6.95;;
11287;SDS011;5700;50.996;7.044;2023-02-19T05:24:58;16.77;;;7.40;;
11287;SDS011;5700;50.996;7.044;2023-02-19T05:28:00;13.95;;;6.95;;
11287;SDS011;5700;50.996;7.044;2023-02-19T05:31:15;14.63;;;7.63;;
11287;SDS011;5700;50.996;7.044;2023-02-19T05:34:17;15.00;;;7.35;;
11287;SDS011;5700;50.996;7.044;2023-02-19T05:37:20;16.40;;;6.93;;
11287;SDS011;5700;50.996;7.044;2023-02-19T05:40:21;14.75;;;7.30;;
11287;SDS011;5700;50.996;7.044;2023-02-19T05:43:23;15.45;;;7.65;;
11287;SDS011;5700;50.996;7.044;2023-02-19T05:46:25;16.90;;;7.90;;
11287;SDS011;5700;50.996;7.044;2023-02-19T05:49:28;20.80;;;8.88;;
11287;SDS011;5700;50.996;7.044;2023-02-19T05:52:30;18.30;;;8.32;;
11287;SDS011;5700;50.996;7.044;2023-02-19T05:55:33;19.13;;;8.48;;
11287;SDS011;5700;50.996;7.044;2023-02-19T05:58:36;22.10;;;9.02;;
11287;SDS011;5700;50.996;7.044;2023-02-19T06:01:37;17.65;;;9.18;;
11287;SDS011;5700;50.996;7.044;2023-02-19T06:04:38;19.52;;;8.82;;
11287;SDS011;5700;50.996;7.044;2023-02-19T06:07:41;20.02;;;8.77;;
11287;SDS011;5700;50.996;7.044;2023-02-19T06:10:43;16.40;;;8.57;;
11287;SDS011;5700;50.996;7.044;2023-02-19T06:13:44;18.65;;;9.00;;
11287;SDS011;5700;50.996;7.044;2023-02-19T06:16:46;17.38;;;8.90;;
11287;SDS011;5700;50.996;7.044;2023-02-19T06:19:47;19.33;;;8.65;;
11287;SDS011;5700;50.996;7.044;2023-02-19T06:22:50;16.20;;;8.48;;
11287;SDS011;5700;50.996;7.044;2023-02-19T06:25:51;19.23;;;8.60;;
11287;SDS011;5700;50.996;7.044;2023-02-19T06:28:53;18.13;;;8.52;;
11287;SDS011;5700;50.996;7.044;2023-02-19T06:31:54;15.70;;;9.25;;
11287;SDS011;5700;50.996;7.044;2023-02-19T06:34:56;15.20;;;8.57;;
11287;SDS011;5700;50.996;7.044;2023-02-19T06:37:58;17.48;;;8.55;;
11287;SDS011;5700;50.996;7.044;2023-02-19T06:41:00;19.02;;;9.15;;
11287;SDS011;5700;50.996;7.044;2023-02-19T06:44:02;19.17;;;9.02;;
11287;SDS011;5700;50.996;7.044;2023-02-19T06:47:03;18.48;;;9.20;;
11287;SDS011;5700;50.996;7.044;2023-02-19T06:50:05;17.20;;;9.15;;
11287;SDS011;5700;50.996;7.044;2023-02-19T06:53:07;23.13;;;9.60;;
11287;SDS011;5700;50.996;7.044;2023-02-19T06:56:20;19.27;;;9.40;;
11287;SDS011;5700;50.996;7.044;2023-02-19T06:59:23;20.58;;;8.32;;
11287;SDS011;5700;50.996;7.044;2023-02-19T07:02:25;17.45;;;8.48;;
11287;SDS011;5700;50.996;7.044;2023-02-19T07:05:26;15.50;;;8.18;;
11287;SDS011;5700;50.996;7.044;2023-02-19T07:08:29;16.98;;;8.70;;
11287;SDS011;5700;50.996;7.044;2023-02-19T07:11:31;17.55;;;8.23;;
11287;SDS011;5700;50.996;7.044;2023-02-19T07:14:33;20.10;;;7.90;;
11287;SDS011;5700;50.996;7.044;2023-02-19T07:17:35;17.67;;;7.78;;
11287;SDS011;5700;50.996;7.044;2023-02-19T07:20:36;15.10;;;8.00;;
11287;SDS011;5700;50.996;7.044;2023-02-19T07:23:39;18.27;;;8.18;;
11287;SDS011;5700;50.996;7.044;2023-02-19T07:26:41;16.58;;;7.30;;
11287;SDS011;5700;50.996;7.044;2023-02-19T07:29:42;20.23;;;8.18;;
11287;SDS011;5700;50.996;7.044;2023-02-19T07:32:43;17.50;;;7.95;;
11287;SDS011;5700;50.996;7.044;2023-02-19T07:35:45;13.27;;;7.28;;
11287;SDS011;5700;50.996;7.044;2023-02-19T07:38:50;13.85;;;6.53;;
11287;SDS011;5700;50.996;7.044;2023-02-19T07:41:54;15.20;;;7.50;;
11287;SDS011;5700;50.996;7.044;2023-02-19T07:44:55;13.75;;;5.72;;
11287;SDS011;5700;50.996;7.044;2023-02-19T07:47:57;11.82;;;6.20;;
11287;SDS011;5700;50.996;7.044;2023-02-19T07:50:58;10.38;;;4.55;;
11287;SDS011;5700;50.996;7.044;2023-02-19T07:54:01;10.55;;;4.90;;
11287;SDS011;5700;50.996;7.044;2023-02-19T07:57:03;8.07;;;3.38;;
11287;SDS011;5700;50.996;7.044;2023-02-19T08:00:04;10.02;;;4.35;;
11287;SDS011;5700;50.996;7.044;2023-02-19T08:03:06;13.15;;;5.30;;
11287;SDS011;5700;50.996;7.044;2023-02-19T08:06:08;11.02;;;4.18;;
11287;SDS011;5700;50.996;7.044;2023-02-19T08:09:12;10.68;;;4.15;;
11287;SDS011;5700;50.996;7.044;2023-02-19T08:12:13;13.43;;;4.53;;
11287;SDS011;5700;50.996;7.044;2023-02-19T08:15:29;10.32;;;4.70;;
11287;SDS011;5700;50.996;7.044;2023-02-19T08:18:31;13.15;;;4.13;;
11287;SDS011;5700;50.996;7.044;2023-02-19T08:21:32;11.82;;;4.15;;
11287;SDS011;5700;50.996;7.044;2023-02-19T08:24:35;15.43;;;4.30;;
11287;SDS011;5700;50.996;7.044;2023-02-19T08:27:41;11.02;;;5.43;;
11287;SDS011;5700;50.996;7.044;2023-02-19T08:30:43;13.90;;;4.80;;
11287;SDS011;5700;50.996;7.044;2023-02-19T08:33:45;15.88;;;7.07;;
11287;SDS011;5700;50.996;7.044;2023-02-19T08:36:47;6.38;;;3.40;;
11287;SDS011;5700;50.996;7.044;2023-02-19T08:39:49;15.02;;;4.45;;
11287;SDS011;5700;50.996;7.044;2023-02-19T08:42:51;12.57;;;4.97;;
11287;SDS011;5700;50.996;7.044;2023-02-19T08:45:52;14.18;;;4.68;;
11287;SDS011;5700;50.996;7.044;2023-02-19T08:48:54;13.10;;;5.45;;
11287;SDS011;5700;50.996;7.044;2023-02-19T08:51:56;10.25;;;4.75;;
11287;SDS011;5700;50.996;7.044;2023-02-19T08:54:58;12.63;;;6.50;;
11287;SDS011;5700;50.996;7.044;2023-02-19T08:58:00;12.15;;;6.63;;
11287;SDS011;5700;50.996;7.044;2023-02-19T09:01:01;11.52;;;5.50;;
11287;SDS011;5700;50.996;7.044;2023-02-19T09:04:03;18.92;;;9.52;;
11287;SDS011;5700;50.996;7.044;2023-02-19T09:07:05;14.60;;;4.72;;
11287;SDS011;5700;50.996;7.044;2023-02-19T09:10:10;12.43;;;4.63;;
11287;SDS011;5700;50.996;7.044;2023-02-19T09:13:13;12.52;;;4.93;;
11287;SDS011;5700;50.996;7.044;2023-02-19T09:16:14;12.73;;;4.05;;
11287;SDS011;5700;50.996;7.044;2023-02-19T09:19:16;11.48;;;4.47;;
11287;SDS011;5700;50.996;7.044;2023-02-19T09:22:17;11.30;;;4.63;;
11287;SDS011;5700;50.996;7.044;2023-02-19T09:25:20;11.85;;;4.07;;
11287;SDS011;5700;50.996;7.044;2023-02-19T09:28:21;8.15;;;3.55;;
11287;SDS011;5700;50.996;7.044;2023-02-19T09:31:23;9.90;;;4.03;;
11287;SDS011;5700;50.996;7.044;2023-02-19T09:34:24;14.18;;;4.45;;
11287;SDS011;5700;50.996;7.044;2023-02-19T09:37:26;9.38;;;3.83;;
11287;SDS011;5700;50.996;7.044;2023-02-19T09:40:29;10.02;;;3.30;;
11287;SDS011;5700;50.996;7.044;2023-02-19T09:43:31;6.63;;;3.03;;
11287;SDS011;5700;50.996;7.044;2023-02-19T09:46:34;9.02;;;2.92;;
11287;SDS011;5700;50.996;7.044;2023-02-19T09:49:39;7.50;;;2.95;;
11287;SDS011;5700;50.996;7.044;2023-02-19T09:52:44;5.78;;;2.47;;
11287;SDS011;5700;50.996;7.044;2023-02-19T09:55:48;9.80;;;2.60;;
11287;SDS011;5700;50.996;7.044;2023-02-19T09:58:50;9.48;;;2.80;;
11287;SDS011;5700;50.996;7.044;2023-02-19T10:01:56;7.80;;;2.88;;
11287;SDS011;5700;50.996;7.044;2023-02-19T10:05:01;6.07;;;2.58;;
11287;SDS011;5700;50.996;7.044;2023-02-19T10:08:04;7.40;;;2.00;;
11287;SDS011;5700;50.996;7.044;2023-02-19T10:11:08;5.43;;;2.08;;
11287;SDS011;5700;50.996;7.044;2023-02-19T10:14:12;3.67;;;1.83;;
11287;SDS011;5700;50.996;7.044;2023-02-19T10:17:18;5.22;;;1.88;;
11287;SDS011;5700;50.996;7.044;2023-02-19T10:20:23;3.78;;;2.05;;
11287;SDS011;5700;50.996;7.044;2023-02-19T10:23:26;11.65;;;4.28;;
11287;SDS011;5700;50.996;7.044;2023-02-19T10:26:29;6.28;;;2.42;;
11287;SDS011;5700;50.996;7.044;2023-02-19T10:29:34;10.38;;;4.00;;
11287;SDS011;5700;50.996;7.044;2023-02-19T10:32:35;6.70;;;2.80;;
11287;SDS011;5700;50.996;7.044;2023-02-19T10:35:50;5.97;;;2.65;;
11287;SDS011;5700;50.996;7.044;2023-02-19T10:38:53;5.72;;;2.15;;
11287;SDS011;5700;50.996;7.044;2023-02-19T10:41:56;5.10;;;2.38;;
11287;SDS011;5700;50.996;7.044;2023-02-19T10:44:59;5.85;;;3.35;;
11287;SDS011;5700;50.996;7.044;2023-02-19T10:48:02;8.05;;;2.85;;
11287;SDS011;5700;50.996;7.044;2023-02-19T10:51:04;9.18;;;4.45;;
11287;SDS011;5700;50.996;7.044;2023-02-19T10:54:15;18.55;;;8.52;;
11287;SDS011;5700;50.996;7.044;2023-02-19T10:57:27;22.70;;;8.40;;
11287;SDS011;5700;50.996;7.044;2023-02-19T11:00:32;17.25;;;7.82;;
11287;SDS011;5700;50.996;7.044;2023-02-19T11:03:34;6.47;;;3.05;;
11287;SDS011;5700;50.996;7.044;2023-02-19T11:06:35;7.82;;;3.17;;
11287;SDS011;5700;50.996;7.044;2023-02-19T11:09:37;13.45;;;3.17;;
11287;SDS011;5700;50.996;7.044;2023-02-19T11:12:41;7.22;;;3.97;;
11287;SDS011;5700;50.996;7.044;2023-02-19T11:15:49;8.02;;;3.15;;
11287;SDS011;5700;50.996;7.044;2023-02-19T11:18:52;7.68;;;2.97;;
11287;SDS011;5700;50.996;7.044;2023-02-19T11:21:56;24.92;;;9.07;;
11287;SDS011;5700;50.996;7.044;2023-02-19T11:25:00;10.93;;;5.13;;
11287;SDS011;5700;50.996;7.044;2023-02-19T11:28:06;12.50;;;5.85;;
11287;SDS011;5700;50.996;7.044;2023-02-19T11:31:22;8.88;;;4.00;;
11287;SDS011;5700;50.996;7.044;2023-02-19T11:34:26;16.20;;;8.85;;
11287;SDS011;5700;50.996;7.044;2023-02-19T11:37:29;11.68;;;4.18;;
11287;SDS011;5700;50.996;7.044;2023-02-19T11:40:34;10.35;;;3.80;;
11287;SDS011;5700;50.996;7.044;2023-02-19T11:43:47;7.60;;;3.72;;
11287;SDS011;5700;50.996;7.044;2023-02-19T11:46:57;6.10;;;3.55;;
11287;SDS011;5700;50.996;7.044;2023-02-19T11:50:07;6.60;;;3.60;;
11287;SDS011;5700;50.996;7.044;2023-02-19T11:53:16;11.10;;;3.72;;
11287;SDS011;5700;50.996;7.044;2023-02-19T11:56:22;7.15;;;3.05;;
11287;SDS011;5700;50.996;7.044;2023-02-19T11:59:35;7.45;;;3.42;;
11287;SDS011;5700;50.996;7.044;2023-02-19T12:02:44;6.65;;;2.80;;
11287;SDS011;5700;50.996;7.044;2023-02-19T12:06:00;8.13;;;2.75;;
11287;SDS011;5700;50.996;7.044;2023-02-19T12:09:11;5.15;;;2.92;;
11287;SDS011;5700;50.996;7.044;2023-02-19T12:12:28;8.75;;;3.40;;
11287;SDS011;5700;50.996;7.044;2023-02-19T12:15:40;9.60;;;3.55;;
11287;SDS011;5700;50.996;7.044;2023-02-19T12:18:52;9.35;;;5.07;;
11287;SDS011;5700;50.996;7.044;2023-02-19T12:22:03;7.60;;;3.47;;
11287;SDS011;5700;50.996;7.044;2023-02-19T12:25:19;7.43;;;3.72;;
11287;SDS011;5700;50.996;7.044;2023-02-19T12:28:28;6.93;;;3.08;;
11287;SDS011;5700;50.996;7.044;2023-02-19T12:31:43;5.28;;;3.05;;
11287;SDS011;5700;50.996;7.044;2023-02-19T12:35:06;7.40;;;3.10;;
11287;SDS011;5700;50.996;7.044;2023-02-19T12:38:18;5.82;;;2.97;;
11287;SDS011;5700;50.996;7.044;2023-02-19T12:41:26;6.55;;;2.25;;
11287;SDS011;5700;50.996;7.044;2023-02-19T12:44:32;5.63;;;2.63;;
11287;SDS011;5700;50.996;7.044;2023-02-19T12:47:40;7.28;;;3.15;;
11287;SDS011;5700;50.996;7.044;2023-02-19T12:50:42;3.85;;;2.33;;
11287;SDS011;5700;50.996;7.044;2023-02-19T12:53:46;4.38;;;2.70;;
11287;SDS011;5700;50.996;7.044;2023-02-19T12:56:51;4.72;;;2.28;;
11287;SDS011;5700;50.996;7.044;2023-02-19T12:59:56;5.80;;;1.85;;
11287;SDS011;5700;50.996;7.044;2023-02-19T13:03:05;5.70;;;2.33;;
11287;SDS011;5700;50.996;7.044;2023-02-19T13:06:10;6.65;;;3.05;;
11287;SDS011;5700;50.996;7.044;2023-02-19T13:09:21;5.85;;;2.13;;
11287;SDS011;5700;50.996;7.044;2023-02-19T13:12:25;12.20;;;7.97;;
11287;SDS011;5700;50.996;7.044;2023-02-19T13:15:30;5.32;;;2.60;;
11287;SDS011;5700;50.996;7.044;2023-02-19T13:18:36;3.22;;;2.08;;
11287;SDS011;5700;50.996;7.044;2023-02-19T13:21:40;2.45;;;1.55;;
11287;SDS011;5700;50.996;7.044;2023-02-19T13:24:56;4.80;;;1.40;;
11287;SDS011;5700;50.996;7.044;2023-02-19T13:28:01;4.55;;;1.63;;
11287;SDS011;5700;50.996;7.044;2023-02-19T13:31:13;2.88;;;1.98;;
11287;SDS011;5700;50.996;7.044;2023-02-19T13:34:31;4.15;;;2.17;;
11287;SDS011;5700;50.996;7.044;2023-02-19T13:37:41;4.03;;;2.10;;
11287;SDS011;5700;50.996;7.044;2023-02-19T13:40:51;4.47;;;1.92;;
11287;SDS011;5700;50.996;7.044;2023-02-19T13:43:54;4.72;;;2.17;;
11287;SDS011;5700;50.996;7.044;2023-02-19T13:46:58;5.75;;;2.10;;
11287;SDS011;5700;50.996;7.044;2023-02-19T13:50:05;7.05;;;2.15;;
11287;SDS011;5700;50.996;7.044;2023-02-19T13:56:48;2.28;;;1.40;;
11287;SDS011;5700;50.996;7.044;2023-02-19T13:59:50;2.75;;;1.17;;
11287;SDS011;5700;50.996;7.044;2023-02-19T14:02:59;4.20;;;1.70;;
11287;SDS011;5700;50.996;7.044;2023-02-19T14:06:30;3.60;;;1.58;;
11287;SDS011;5700;50.996;7.044;2023-02-19T14:10:09;5.15;;;2.30;;
11287;SDS011;5700;50.996;7.044;2023-02-19T14:13:15;8.07;;;2.60;;
11287;SDS011;5700;50.996;7.044;2023-02-19T14:16:56;7.18;;;3.08;;
11287;SDS011;5700;50.996;7.044;2023-02-19T14:20:00;11.57;;;3.45;;
11287;SDS011;5700;50.996;7.044;2023-02-19T14:26:25;6.30;;;2.72;;
11287;SDS011;5700;50.996;7.044;2023-02-19T14:29:26;7.00;;;2.78;;
11287;SDS011;5700;50.996;7.044;2023-02-19T14:32:28;4.25;;;2.42;;
11287;SDS011;5700;50.996;7.044;2023-02-19T14:35:31;7.28;;;3.47;;
11287;SDS011;5700;50.996;7.044;2023-02-19T14:38:36;6.20;;;2.97;;
11287;SDS011;5700;50.996;7.044;2023-02-19T14:41:40;6.30;;;3.10;;
11287;SDS011;5700;50.996;7.044;2023-02-19T14:44:45;8.07;;;2.88;;
11287;SDS011;5700;50.996;7.044;2023-02-19T14:47:48;8.38;;;2.97;;
11287;SDS011;5700;50.996;7.044;2023-02-19T14:50:52;8.13;;;3.10;;
11287;SDS011;5700;50.996;7.044;2023-02-19T14:53:57;5.32;;;2.90;;
11287;SDS011;5700;50.996;7.044;2023-02-19T14:56:59;5.72;;;3.20;;
11287;SDS011;5700;50.996;7.044;2023-02-19T15:00:04;6.18;;;3.33;;
11287;SDS011;5700;50.996;7.044;2023-02-19T15:03:27;10.73;;;3.38;;
11287;SDS011;5700;50.996;7.044;2023-02-19T15:06:30;7.57;;;3.60;;
11287;SDS011;5700;50.996;7.044;2023-02-19T15:09:35;8.45;;;3.70;;
11287;SDS011;5700;50.996;7.044;2023-02-19T15:12:40;9.48;;;4.93;;
11287;SDS011;5700;50.996;7.044;2023-02-19T15:15:45;13.70;;;7.13;;
11287;SDS011;5700;50.996;7.044;2023-02-19T15:18:47;43.60;;;16.20;;
11287;SDS011;5700;50.996;7.044;2023-02-19T15:21:49;12.45;;;5.80;;
11287;SDS011;5700;50.996;7.044;2023-02-19T15:24:52;8.50;;;4.55;;
11287;SDS011;5700;50.996;7.044;2023-02-19T15:27:53;10.10;;;4.70;;
11287;SDS011;5700;50.996;7.044;2023-02-19T15:31:02;10.73;;;5.22;;
11287;SDS011;5700;50.996;7.044;2023-02-19T15:34:13;13.10;;;5.97;;
11287;SDS011;5700;50.996;7.044;2023-02-19T15:37:16;14.68;;;6.45;;
11287;SDS011;5700;50.996;7.044;2023-02-19T15:43:24;16.20;;;6.35;;
11287;SDS011;5700;50.996;7.044;2023-02-19T15:46:27;14.10;;;5.07;;
11287;SDS011;5700;50.996;7.044;2023-02-19T15:49:30;12.60;;;5.10;;
11287;SDS011;5700;50.996;7.044;2023-02-19T15:52:38;13.45;;;6.30;;
11287;SDS011;5700;50.996;7.044;2023-02-19T15:55:45;13.35;;;5.57;;
11287;SDS011;5700;50.996;7.044;2023-02-19T15:58:51;16.52;;;6.43;;
11287;SDS011;5700;50.996;7.044;2023-02-19T16:01:56;14.55;;;5.72;;
11287;SDS011;5700;50.996;7.044;2023-02-19T16:04:57;15.07;;;6.32;;
11287;SDS011;5700;50.996;7.044;2023-02-19T16:08:15;12.70;;;5.63;;
11287;SDS011;5700;50.996;7.044;2023-02-19T16:11:27;16.17;;;6.00;;
11287;SDS011;5700;50.996;7.044;2023-02-19T16:14:30;14.05;;;6.15;;
11287;SDS011;5700;50.996;7.044;2023-02-19T16:17:33;15.43;;;6.78;;
11287;SDS011;5700;50.996;7.044;2023-02-19T16:20:34;15.18;;;6.45;;
11287;SDS011;5700;50.996;7.044;2023-02-19T16:23:40;13.27;;;6.47;;
11287;SDS011;5700;50.996;7.044;2023-02-19T16:26:43;13.65;;;7.38;;
11287;SDS011;5700;50.996;7.044;2023-02-19T16:29:48;14.15;;;6.20;;
11287;SDS011;5700;50.996;7.044;2023-02-19T16:36:33;12.10;;;6.50;;
11287;SDS011;5700;50.996;7.044;2023-02-19T16:39:36;13.05;;;6.03;;
11287;SDS011;5700;50.996;7.044;2023-02-19T16:42:57;13.77;;;6.45;;
11287;SDS011;5700;50.996;7.044;2023-02-19T16:46:18;12.68;;;6.22;;
11287;SDS011;5700;50.996;7.044;2023-02-19T16:49:20;12.00;;;6.50;;
11287;SDS011;5700;50.996;7.044;2023-02-19T16:52:22;11.73;;;6.05;;
11287;SDS011;5700;50.996;7.044;2023-02-19T16:55:24;10.80;;;6.50;;
11287;SDS011;5700;50.996;7.044;2023-02-19T16:58:26;13.60;;;6.75;;
11287;SDS011;5700;50.996;7.044;2023-02-19T17:01:29;17.35;;;7.70;;
11287;SDS011;5700;50.996;7.044;2023-02-19T17:04:31;16.75;;;7.10;;
11287;SDS011;5700;50.996;7.044;2023-02-19T17:07:33;13.50;;;6.72;;
11287;SDS011;5700;50.996;7.044;2023-02-19T17:10:35;11.63;;;6.45;;
11287;SDS011;5700;50.996;7.044;2023-02-19T17:13:36;12.02;;;6.75;;
11287;SDS011;5700;50.996;7.044;2023-02-19T17:16:39;14.07;;;6.38;;
11287;SDS011;5700;50.996;7.044;2023-02-19T17:19:40;14.40;;;7.03;;
11287;SDS011;5700;50.996;7.044;2023-02-19T17:22:42;11.13;;;6.15;;
11287;SDS011;5700;50.996;7.044;2023-02-19T17:25:43;13.05;;;6.85;;
11287;SDS011;5700;50.996;7.044;2023-02-19T17:28:45;11.13;;;6.13;;
11287;SDS011;5700;50.996;7.044;2023-02-19T17:31:48;13.45;;;6.40;;
11287;SDS011;5700;50.996;7.044;2023-02-19T17:34:49;10.25;;;4.72;;
11287;SDS011;5700;50.996;7.044;2023-02-19T17:37:51;12.27;;;4.95;;
11287;SDS011;5700;50.996;7.044;2023-02-19T17:40:52;8.15;;;4.43;;
11287;SDS011;5700;50.996;7.044;2023-02-19T17:43:54;10.52;;;4.00;;
11287;SDS011;5700;50.996;7.044;2023-02-19T17:46:56;8.68;;;3.90;;
11287;SDS011;5700;50.996;7.044;2023-02-19T17:49:58;7.20;;;3.80;;
11287;SDS011;5700;50.996;7.044;2023-02-19T17:53:00;4.90;;;2.53;;
11287;SDS011;5700;50.996;7.044;2023-02-19T17:56:01;7.20;;;2.53;;
11287;SDS011;5700;50.996;7.044;2023-02-19T17:59:02;5.00;;;2.20;;
11287;SDS011;5700;50.996;7.044;2023-02-19T18:02:05;6.40;;;2.40;;
11287;SDS011;5700;50.996;7.044;2023-02-19T18:05:07;3.88;;;2.15;;
11287;SDS011;5700;50.996;7.044;2023-02-19T18:08:08;5.90;;;1.95;;
11287;SDS011;5700;50.996;7.044;2023-02-19T18:11:10;4.85;;;1.73;;
11287;SDS011;5700;50.996;7.044;2023-02-19T18:14:11;4.80;;;1.90;;
11287;SDS011;5700;50.996;7.044;2023-02-19T18:17:14;3.65;;;1.70;;
11287;SDS011;5700;50.996;7.044;2023-02-19T18:20:17;3.70;;;1.73;;
11287;SDS011;5700;50.996;7.044;2023-02-19T18:23:20;3.58;;;1.38;;
11287;SDS011;5700;50.996;7.044;2023-02-19T18:26:21;3.33;;;1.77;;
11287;SDS011;5700;50.996;7.044;2023-02-19T18:29:23;4.50;;;1.75;;
11287;SDS011;5700;50.996;7.044;2023-02-19T18:32:29;2.70;;;1.13;;
11287;SDS011;5700;50.996;7.044;2023-02-19T18:35:30;1.30;;;1.00;;
11287;SDS011;5700;50.996;7.044;2023-02-19T18:38:31;2.80;;;1.50;;
11287;SDS011;5700;50.996;7.044;2023-02-19T18:41:33;2.50;;;1.10;;
11287;SDS011;5700;50.996;7.044;2023-02-19T18:44:34;2.55;;;1.17;;
11287;SDS011;5700;50.996;7.044;2023-02-19T18:47:37;1.20;;;0.85;;
11287;SDS011;5700;50.996;7.044;2023-02-19T18:50:38;2.78;;;0.85;;
11287;SDS011;5700;50.996;7.044;2023-02-19T18:53:40;1.35;;;0.90;;
11287;SDS011;5700;50.996;7.044;2023-02-19T18:56:42;3.90;;;1.15;;
11287;SDS011;5700;50.996;7.044;2023-02-19T18:59:44;1.42;;;0.98;;
11287;SDS011;5700;50.996;7.044;2023-02-19T19:02:47;1.30;;;0.88;;